createdAt,value
2018-11-22T12:17:30.851Z,55.47
2018-11-22T12:21:34.603Z,53.70
2018-11-22T12:25:37.463Z,56.70
2018-11-22T12:29:40.540Z,64.57
2018-11-22T12:33:47.769Z,58.77
2018-11-22T12:37:56.348Z,61.60
2018-11-22T12:41:59.426Z,59.13
2018-11-22T12:46:02.267Z,58.93
2018-11-22T12:50:06.287Z,51.13
2018-11-22T12:54:09.153Z,60.93
2018-11-22T12:58:12.224Z,58.23
2018-11-22T13:02:18.339Z,57.97
2018-11-22T13:06:17.991Z,59.67
2018-11-22T13:10:20.867Z,59.40
2018-11-22T13:14:23.730Z,63.20
2018-11-22T13:18:26.779Z,54.60
2018-11-22T13:22:29.659Z,51.23
2018-11-22T13:26:32.507Z,75.53
2018-11-22T13:30:35.564Z,58.53
2018-11-22T13:34:38.459Z,53.97
2018-11-22T13:38:41.319Z,57.93
2018-11-22T13:42:44.865Z,72.50
2018-11-22T13:46:47.727Z,63.37
2018-11-22T13:50:50.579Z,61.57
2018-11-22T13:54:53.440Z,59.43
2018-11-22T13:58:56.292Z,54.67
2018-11-22T14:03:00.590Z,58.27
2018-11-22T14:07:03.436Z,56.20
2018-11-22T14:11:13.399Z,47.53
2018-11-22T14:15:14.427Z,63.70
2018-11-22T14:19:17.271Z,59.27
2018-11-22T14:23:20.329Z,63.33
2018-11-22T14:27:23.203Z,55.07
2018-11-22T14:31:26.073Z,64.70
2018-11-22T14:35:28.954Z,56.37
2018-11-22T14:39:32.007Z,60.83
2018-11-22T14:43:35.085Z,67.53
2018-11-22T14:47:37.934Z,56.70
2018-11-22T14:51:44.228Z,61.30
2018-11-22T14:55:47.296Z,58.57
2018-11-22T14:59:50.160Z,68.37
2018-11-22T15:03:53.007Z,56.87
2018-11-22T15:07:55.860Z,56.50
2018-11-22T15:11:58.704Z,59.63
2018-11-22T15:16:01.574Z,61.83
2018-11-22T15:20:05.300Z,58.53
2018-11-22T15:24:08.164Z,56.93
2018-11-22T15:28:11.035Z,57.03
2018-11-22T15:32:13.926Z,57.93
2018-11-22T15:36:16.795Z,48.77
2018-11-22T15:40:21.174Z,50.63
2018-11-22T15:44:24.228Z,56.20
2018-11-22T15:48:27.095Z,58.17
2018-11-22T15:52:30.153Z,54.60
2018-11-22T15:56:33.003Z,60.03
2018-11-22T16:00:36.167Z,58.53
2018-11-22T16:04:38.731Z,62.10
2018-11-22T16:08:41.580Z,60.30
2018-11-22T16:12:45.859Z,60.33
2018-11-22T16:16:47.899Z,56.40
2018-11-22T16:20:50.964Z,59.30
2018-11-22T16:24:53.807Z,57.83
2018-11-22T16:28:56.685Z,66.90
2018-11-22T16:32:59.732Z,64.93
2018-11-22T16:37:02.611Z,62.37
2018-11-22T16:41:05.721Z,62.43
2018-11-22T16:45:13.899Z,56.80
2018-11-22T16:49:16.767Z,64.20
2018-11-22T16:53:19.639Z,67.87
2018-11-22T16:57:22.702Z,59.63
2018-11-22T17:01:27.770Z,57.10
2018-11-22T17:05:28.928Z,60.50
2018-11-22T17:09:31.791Z,64.77
2018-11-22T17:13:34.635Z,55.20
2018-11-22T17:17:37.576Z,51.77
2018-11-22T17:21:40.419Z,65.20
2018-11-22T17:25:43.507Z,59.00
2018-11-22T17:29:46.387Z,58.47
2018-11-22T17:33:49.379Z,60.30
2018-11-22T17:37:52.984Z,60.70
2018-11-22T17:41:55.855Z,55.37
2018-11-22T17:45:58.706Z,59.17
2018-11-22T17:50:01.577Z,57.17
2018-11-22T17:54:05.043Z,70.63
2018-11-22T17:58:07.960Z,60.07
2018-11-22T18:02:11.036Z,54.17
2018-11-22T18:06:13.895Z,58.60
2018-11-22T18:10:19.100Z,56.30
2018-11-22T18:14:22.172Z,53.80
2018-11-22T18:18:25.552Z,55.70
2018-11-22T18:22:28.628Z,59.07
2018-11-22T18:26:31.481Z,61.13
2018-11-22T18:30:34.855Z,51.70
2018-11-22T18:34:37.735Z,61.00
2018-11-22T18:38:40.643Z,56.57
2018-11-22T18:42:44.191Z,55.13
2018-11-22T18:46:47.068Z,53.60
2018-11-22T18:50:50.060Z,49.33
2018-11-22T18:54:52.935Z,58.90
2018-11-22T18:58:56.016Z,58.90
2018-11-22T19:02:59.659Z,53.07
2018-11-22T19:07:02.512Z,54.00
2018-11-22T19:11:05.396Z,52.73
2018-11-22T19:15:09.144Z,56.67
2018-11-22T19:19:12.019Z,53.87
2018-11-22T19:23:15.216Z,51.27
2018-11-22T19:27:18.707Z,51.20
2018-11-22T19:31:21.673Z,54.13
2018-11-22T19:35:26.843Z,52.50
2018-11-22T19:39:29.932Z,50.33
2018-11-22T19:43:32.803Z,53.07
2018-11-22T19:47:35.860Z,52.73
2018-11-22T19:51:38.929Z,50.17
2018-11-22T19:55:41.827Z,49.40
2018-11-22T19:59:44.927Z,53.47
2018-11-22T20:03:47.776Z,50.47
2018-11-22T20:07:52.163Z,48.83
2018-11-22T20:11:55.017Z,45.97
2018-11-22T20:15:57.876Z,47.70
2018-11-22T20:20:00.727Z,46.37
2018-11-22T20:24:10.260Z,43.17
2018-11-22T20:28:13.114Z,52.40
2018-11-22T20:32:16.117Z,50.67
2018-11-22T20:36:18.975Z,50.87
2018-11-22T20:40:23.064Z,43.27
2018-11-22T20:44:25.916Z,47.40
2018-11-22T20:48:28.985Z,45.23
2018-11-22T20:52:31.839Z,43.73
2018-11-22T20:56:34.755Z,44.90
2018-11-22T21:00:39.126Z,47.40
2018-11-22T21:04:41.991Z,44.20
2018-11-22T21:08:48.597Z,45.70
2018-11-22T21:12:47.720Z,41.10
2018-11-22T21:16:50.567Z,41.27
2018-11-22T21:20:53.436Z,43.33
2018-11-22T21:24:56.284Z,44.10
2018-11-22T21:28:59.358Z,42.13
2018-11-22T21:33:02.596Z,39.47
2018-11-22T21:37:05.659Z,42.73
2018-11-22T21:41:08.531Z,43.03
2018-11-22T21:45:13.358Z,40.10
2018-11-22T21:49:16.203Z,42.33
2018-11-22T21:53:19.060Z,39.27
2018-11-22T21:57:22.124Z,40.67
2018-11-22T22:01:25.015Z,39.97
2018-11-22T22:05:28.091Z,38.07
2018-11-22T22:09:31.171Z,38.30
2018-11-22T22:13:34.019Z,44.40
2018-11-22T22:17:37.500Z,37.33
2018-11-22T22:21:40.353Z,37.90
2018-11-22T22:25:43.206Z,37.43
2018-11-22T22:29:46.059Z,38.07
2018-11-22T22:33:48.919Z,33.87
2018-11-22T22:37:51.984Z,32.53
2018-11-22T22:41:54.887Z,36.30
2018-11-22T22:45:57.739Z,34.10
2018-11-22T22:50:00.600Z,33.87
2018-11-22T22:54:03.467Z,38.20
2018-11-22T22:58:06.336Z,37.60
2018-11-22T23:02:09.389Z,36.07
2018-11-22T23:06:12.247Z,31.73
2018-11-22T23:10:15.432Z,34.87
2018-11-22T23:14:18.304Z,38.37
2018-11-22T23:18:21.197Z,32.70
2018-11-22T23:22:24.081Z,32.23
2018-11-22T23:26:26.956Z,37.47
2018-11-22T23:30:31.240Z,34.93
2018-11-22T23:34:34.302Z,35.07
2018-11-22T23:38:37.184Z,30.43
2018-11-22T23:42:40.344Z,34.70
2018-11-22T23:46:43.432Z,32.50
2018-11-22T23:50:46.296Z,28.97
2018-11-22T23:54:49.173Z,33.67
2018-11-22T23:58:52.072Z,33.13
